Time;durP1;ratioP1;P1;durP2;ratioP2;P2;SDS_P1;SDS_P2;PMS_P1;PMS_P2;Temp;Humidity;BMP_temperature;BMP_pressure;BME280_temperature;BME280_humidity;BME280_pressure;Samples;Min_cycle;Max_cycle;Signal;HPM_P1;HPM_P2
2021/08/31 00:00:43;;;;;;;7.00;1.90;;;16.70;90.20;;;;;;5093649;28;20424;-76
2021/08/31 00:03:09;;;;;;;3.85;1.70;;;16.70;90.30;;;;;;5076436;28;20606;-77
2021/08/31 00:05:34;;;;;;;4.60;1.92;;;16.70;90.40;;;;;;5111756;28;20020;-77
2021/08/31 00:08:00;;;;;;;3.85;1.65;;;16.70;90.50;;;;;;5111659;28;20040;-78
2021/08/31 00:10:26;;;;;;;4.82;1.52;;;16.70;90.60;;;;;;5111751;28;20024;-77
2021/08/31 00:12:51;;;;;;;4.80;2.30;;;16.60;90.60;;;;;;5111659;28;20035;-77
2021/08/31 00:15:17;;;;;;;3.67;1.63;;;16.60;90.70;;;;;;5093260;28;20035;-76
2021/08/31 00:17:43;;;;;;;4.05;1.80;;;16.60;90.80;;;;;;5093294;28;20035;-77
2021/08/31 00:20:10;;;;;;;6.05;2.08;;;16.60;90.80;;;;;;5093462;28;20489;-78
2021/08/31 00:22:37;;;;;;;4.28;1.92;;;16.60;90.90;;;;;;5092999;28;20036;-77
2021/08/31 00:25:05;;;;;;;6.15;1.98;;;16.70;91.00;;;;;;5093095;28;20107;-78
2021/08/31 00:27:31;;;;;;;5.95;2.03;;;16.60;91.00;;;;;;5092940;28;20066;-77
2021/08/31 00:29:57;;;;;;;5.32;1.77;;;16.70;91.10;;;;;;5111324;28;20051;-77
2021/08/31 00:32:23;;;;;;;;;;;16.70;91.20;;;;;;5093262;28;20034;-77
2021/08/31 00:34:48;;;;;;;4.10;1.58;;;16.70;91.10;;;;;;5092754;28;19904;-78
2021/08/31 00:37:14;;;;;;;6.68;2.53;;;16.70;91.00;;;;;;5075944;28;20027;-78
2021/08/31 00:39:40;;;;;;;7.25;2.22;;;16.70;91.10;;;;;;5092899;28;20537;-78
2021/08/31 00:42:05;;;;;;;6.05;1.80;;;16.70;91.30;;;;;;5110957;28;20437;-77
2021/08/31 00:44:31;;;;;;;5.75;1.95;;;16.70;91.40;;;;;;5075612;28;20065;-77
2021/08/31 00:47:02;;;;;;;6.18;1.75;;;16.70;91.50;;;;;;5111000;28;20027;-77
2021/08/31 00:49:29;;;;;;;6.75;2.17;;;16.80;91.70;;;;;;5075542;28;20439;-78
2021/08/31 00:51:57;;;;;;;6.35;2.00;;;16.80;91.70;;;;;;5092879;28;20636;-77
2021/08/31 00:54:24;;;;;;;5.25;2.38;;;16.80;91.70;;;;;;5075867;28;20041;-77
2021/08/31 00:56:54;;;;;;;7.07;1.90;;;16.80;91.80;;;;;;5092379;28;20035;-77
2021/08/31 00:59:21;;;;;;;5.90;2.10;;;16.90;91.90;;;;;;5092431;28;20026;-77
2021/08/31 01:01:51;;;;;;;8.40;2.28;;;16.90;91.90;;;;;;5092419;28;20107;-77
2021/08/31 01:04:21;;;;;;;8.40;1.98;;;16.90;92.00;;;;;;5092236;28;20031;-76
2021/08/31 01:06:50;;;;;;;8.38;2.42;;;17.00;92.00;;;;;;5110253;28;20469;-77
2021/08/31 01:09:16;;;;;;;10.02;1.95;;;17.00;92.00;;;;;;5092775;28;20038;-77
2021/08/31 01:11:42;;;;;;;7.65;1.80;;;17.00;92.00;;;;;;5092212;28;20477;-75
2021/08/31 01:14:08;;;;;;;;;;;17.00;92.00;;;;;;5110861;28;20454;-76
2021/08/31 01:16:38;;;;;;;6.18;1.80;;;17.00;91.90;;;;;;5091944;28;19908;-77
2021/08/31 01:19:04;;;;;;;6.60;1.95;;;17.00;91.80;;;;;;5110401;28;20034;-77
2021/08/31 01:21:30;;;;;;;;;;;17.00;91.90;;;;;;5110684;28;20024;-78
2021/08/31 01:23:56;;;;;;;3.83;1.55;;;17.00;92.00;;;;;;5110296;28;19985;-77
2021/08/31 01:26:22;;;;;;;5.32;1.65;;;17.00;91.90;;;;;;5110301;28;20047;-77
2021/08/31 01:28:48;;;;;;;6.25;2.35;;;17.00;92.00;;;;;;5092000;28;20031;-77
2021/08/31 01:31:13;;;;;;;6.05;1.73;;;17.00;92.00;;;;;;5075080;28;20062;-77
2021/08/31 01:33:39;;;;;;;3.92;1.50;;;17.00;92.10;;;;;;5091742;28;20164;-76
2021/08/31 01:36:15;;;;;;;6.50;1.90;;;17.00;92.10;;;;;;5074777;28;20031;-77
2021/08/31 01:38:41;;;;;;;6.10;1.80;;;17.00;92.20;;;;;;5091730;28;20043;-76
2021/08/31 01:41:07;;;;;;;5.93;1.55;;;17.10;92.20;;;;;;5109846;28;20276;-76
2021/08/31 01:43:32;;;;;;;7.20;1.50;;;17.10;92.20;;;;;;5109461;28;20123;-77
2021/08/31 01:45:58;;;;;;;4.43;1.58;;;17.10;92.10;;;;;;5091291;28;20100;-77
2021/08/31 01:48:24;;;;;;;5.43;1.65;;;17.20;92.10;;;;;;5074479;28;20028;-76
2021/08/31 01:50:49;;;;;;;4.97;1.77;;;17.20;92.00;;;;;;5074582;28;20333;-77
2021/08/31 01:53:15;;;;;;;6.13;2.05;;;17.20;92.00;;;;;;5091618;28;20036;-77
2021/08/31 01:55:41;;;;;;;8.20;1.60;;;17.30;92.00;;;;;;5109550;28;20102;-77
2021/08/31 01:58:07;;;;;;;7.95;1.60;;;17.30;92.00;;;;;;5109651;28;20477;-76
2021/08/31 02:00:33;;;;;;;6.47;1.83;;;17.30;92.00;;;;;;5109613;28;20042;-76
2021/08/31 02:02:59;;;;;;;5.38;1.70;;;17.30;92.00;;;;;;5091122;28;20032;-78
2021/08/31 02:05:25;;;;;;;6.30;1.50;;;17.30;92.00;;;;;;5091120;28;20020;-77
2021/08/31 02:07:51;;;;;;;7.13;1.48;;;17.30;92.30;;;;;;5091174;28;20040;-77
2021/08/31 02:10:17;;;;;;;7.60;1.55;;;17.30;92.00;;;;;;5091205;28;20032;-77
2021/08/31 02:12:42;;;;;;;7.35;1.48;;;17.20;92.00;;;;;;5091199;28;20024;-77
2021/08/31 02:15:08;;;;;;;4.70;1.63;;;17.20;92.10;;;;;;5091144;28;20023;-77
2021/08/31 02:17:34;;;;;;;;;;;17.20;92.10;;;;;;5073856;28;20426;-77
2021/08/31 02:20:00;;;;;;;6.03;1.80;;;17.30;92.00;;;;;;5109089;28;19990;-77
2021/08/31 02:22:25;;;;;;;4.75;1.67;;;17.20;92.00;;;;;;5109327;28;20016;-77
2021/08/31 02:24:51;;;;;;;5.78;1.80;;;17.20;92.00;;;;;;5090681;28;20130;-77
2021/08/31 02:27:17;;;;;;;7.50;1.65;;;17.20;92.10;;;;;;5090965;28;20032;-78
2021/08/31 02:29:42;;;;;;;5.68;1.65;;;17.20;92.10;;;;;;5090925;28;20032;-78
2021/08/31 02:32:08;;;;;;;5.10;1.42;;;17.20;92.10;;;;;;5073932;28;20034;-78
2021/08/31 02:34:34;;;;;;;6.45;2.08;;;17.20;92.20;;;;;;5090368;28;20032;-78
2021/08/31 02:37:00;;;;;;;5.72;1.67;;;17.20;92.20;;;;;;5073825;28;20028;-77
2021/08/31 02:39:27;;;;;;;5.82;2.00;;;17.20;92.20;;;;;;5090534;28;20077;-77
2021/08/31 02:41:52;;;;;;;8.00;2.33;;;17.20;92.20;;;;;;5106465;28;20448;-78
2021/08/31 02:44:18;;;;;;;8.20;1.90;;;17.10;92.30;;;;;;5108663;28;20036;-76
2021/08/31 02:46:44;;;;;;;5.57;1.95;;;17.10;92.40;;;;;;5108612;28;20032;-77
2021/08/31 02:49:09;;;;;;;8.73;2.10;;;17.10;92.40;;;;;;5090513;28;20023;-77
2021/08/31 02:51:35;;;;;;;7.72;2.83;;;17.10;92.50;;;;;;5090247;28;20038;-78
2021/08/31 02:54:01;;;;;;;9.13;2.90;;;17.10;92.50;;;;;;5090370;28;20106;-78
2021/08/31 02:56:26;;;;;;;8.38;2.55;;;17.00;92.60;;;;;;5073296;28;20035;-78
2021/08/31 02:58:52;;;;;;;8.13;2.10;;;17.00;92.60;;;;;;5073509;28;20023;-77
2021/08/31 03:04:16;;;;;;;9.57;2.60;;;17.10;92.70;;;;;;5062815;28;20078;-77
2021/08/31 03:06:42;;;;;;;6.82;2.03;;;17.10;92.80;;;;;;5108365;28;20454;-78
2021/08/31 03:09:07;;;;;;;6.28;2.17;;;17.10;92.80;;;;;;5090080;28;20040;-78
2021/08/31 03:11:34;;;;;;;9.88;2.28;;;17.10;92.80;;;;;;5089986;28;20058;-77
2021/08/31 03:13:59;;;;;;;11.60;2.30;;;17.10;92.90;;;;;;5090004;28;20111;-77
2021/08/31 03:16:25;;;;;;;8.65;2.60;;;17.10;93.00;;;;;;5073105;28;20434;-78
2021/08/31 03:18:51;;;;;;;11.98;2.70;;;17.10;93.00;;;;;;5090020;28;20027;-76
2021/08/31 03:21:16;;;;;;;8.55;2.00;;;17.10;93.10;;;;;;5073070;28;20031;-78
2021/08/31 03:23:42;;;;;;;6.55;2.50;;;17.10;93.10;;;;;;5108140;28;20439;-77
2021/08/31 03:26:08;;;;;;;11.48;3.20;;;17.10;93.20;;;;;;5089949;28;20046;-76
2021/08/31 03:28:33;;;;;;;9.77;2.47;;;17.10;93.30;;;;;;5089826;28;20024;-78
2021/08/31 03:30:59;;;;;;;10.43;2.60;;;17.10;93.30;;;;;;5089889;28;20051;-77
2021/08/31 03:33:25;;;;;;;11.38;2.55;;;17.00;93.40;;;;;;5089683;28;20028;-77
2021/08/31 03:35:50;;;;;;;11.52;2.45;;;17.00;93.50;;;;;;5089837;28;20055;-77
2021/08/31 03:38:16;;;;;;;9.85;2.42;;;17.00;93.40;;;;;;5108064;28;20439;-77
2021/08/31 03:40:42;;;;;;;14.13;2.90;;;17.00;93.50;;;;;;5089953;28;20035;-78
2021/08/31 03:43:07;;;;;;;10.20;2.50;;;16.90;93.60;;;;;;5085893;28;20055;-79
2021/08/31 03:45:33;;;;;;;6.93;2.40;;;16.80;93.60;;;;;;5069094;28;20089;-77
2021/08/31 03:47:59;;;;;;;7.25;2.28;;;16.80;93.70;;;;;;5086109;28;20491;-78
2021/08/31 03:50:24;;;;;;;7.97;2.53;;;16.70;93.70;;;;;;5085868;28;20032;-78
2021/08/31 03:52:50;;;;;;;6.53;2.40;;;16.70;93.80;;;;;;5069198;28;20032;-78
2021/08/31 03:55:16;;;;;;;9.48;2.40;;;16.60;93.90;;;;;;5069183;28;20071;-76
2021/08/31 03:57:41;;;;;;;11.88;2.38;;;16.70;93.90;;;;;;5087357;28;20035;-77
2021/08/31 04:00:08;;;;;;;5.82;2.20;;;16.70;93.90;;;;;;5052433;28;20504;-78
2021/08/31 04:02:34;;;;;;;8.40;2.08;;;16.60;93.80;;;;;;5087229;28;20032;-77
2021/08/31 04:04:59;;;;;;;;;;;16.60;93.90;;;;;;5087806;28;20120;-77
2021/08/31 04:07:25;;;;;;;11.60;3.00;;;16.60;94.00;;;;;;5087321;28;20007;-78
2021/08/31 04:09:51;;;;;;;8.10;2.10;;;16.50;93.90;;;;;;5086010;28;20028;-77
2021/08/31 04:12:16;;;;;;;5.68;2.08;;;16.40;94.00;;;;;;5052592;28;20042;-78
2021/08/31 04:14:43;;;;;;;5.55;1.90;;;16.40;94.10;;;;;;5085952;28;20436;-78
2021/08/31 04:17:09;;;;;;;8.07;2.20;;;16.40;94.20;;;;;;5085989;28;20028;-78
2021/08/31 04:19:35;;;;;;;5.63;2.03;;;16.40;94.30;;;;;;5069234;28;20041;-77
2021/08/31 04:22:02;;;;;;;8.20;1.98;;;16.40;94.20;;;;;;5087309;28;20496;-78
2021/08/31 04:24:27;;;;;;;7.68;2.15;;;16.40;94.20;;;;;;5085697;28;20524;-78
2021/08/31 04:26:53;;;;;;;6.03;2.03;;;16.40;94.20;;;;;;5069218;28;20073;-78
2021/08/31 04:29:19;;;;;;;5.35;2.30;;;16.40;94.30;;;;;;5069001;28;20033;-78
2021/08/31 04:31:44;;;;;;;6.32;2.60;;;16.30;94.30;;;;;;5085800;28;20029;-78
2021/08/31 04:34:10;;;;;;;5.72;1.90;;;16.30;94.30;;;;;;5087086;28;20063;-77
2021/08/31 04:36:36;;;;;;;5.68;1.85;;;16.30;94.40;;;;;;5085736;28;20029;-79
2021/08/31 04:39:02;;;;;;;7.97;1.88;;;16.30;94.50;;;;;;5085634;28;20032;-77
2021/08/31 04:41:27;;;;;;;6.93;1.83;;;16.30;94.50;;;;;;5088701;28;20024;-78
2021/08/31 04:43:53;;;;;;;5.18;1.70;;;16.30;94.50;;;;;;5089186;28;20066;-78
2021/08/31 04:46:19;;;;;;;6.65;1.70;;;16.30;94.50;;;;;;5089392;28;20775;-78
2021/08/31 04:48:44;;;;;;;6.15;2.00;;;16.30;94.50;;;;;;5090738;28;20032;-77
2021/08/31 04:51:10;;;;;;;9.48;2.17;;;16.20;94.50;;;;;;5089329;28;20025;-78
2021/08/31 04:53:36;;;;;;;8.60;1.85;;;16.20;94.60;;;;;;5089377;28;20034;-78
2021/08/31 04:56:01;;;;;;;10.35;2.83;;;16.20;94.70;;;;;;5089326;28;20036;-77
2021/08/31 04:58:27;;;;;;;7.32;1.90;;;16.20;94.70;;;;;;5072442;28;20085;-77
2021/08/31 05:00:53;;;;;;;6.15;2.15;;;16.10;94.70;;;;;;5090651;28;20028;-77
2021/08/31 05:03:19;;;;;;;6.90;2.13;;;16.10;94.70;;;;;;5055561;28;20479;-78
2021/08/31 05:05:44;;;;;;;6.18;2.10;;;16.00;94.70;;;;;;5055511;28;20032;-77
2021/08/31 05:08:10;;;;;;;7.15;2.20;;;15.90;94.80;;;;;;5089074;28;20024;-78
2021/08/31 05:10:36;;;;;;;6.00;2.08;;;15.90;95.00;;;;;;5090209;28;20034;-77
2021/08/31 05:13:02;;;;;;;7.60;2.40;;;15.80;95.20;;;;;;5071814;28;20032;-77
2021/08/31 05:15:28;;;;;;;8.93;2.33;;;15.70;95.30;;;;;;5090143;28;20052;-77
2021/08/31 05:17:54;;;;;;;8.38;2.45;;;15.70;95.40;;;;;;5088567;28;20028;-76
2021/08/31 05:20:20;;;;;;;9.60;2.50;;;15.60;95.50;;;;;;5090014;28;20096;-77
2021/08/31 05:22:46;;;;;;;12.25;2.53;;;15.60;95.70;;;;;;5089996;28;20031;-77
2021/08/31 05:25:11;;;;;;;7.25;2.20;;;15.60;95.70;;;;;;5089723;28;20092;-77
2021/08/31 05:27:37;;;;;;;9.63;2.85;;;15.60;95.70;;;;;;5088632;28;20020;-76
2021/08/31 05:30:03;;;;;;;8.30;2.60;;;15.60;95.70;;;;;;5088402;28;20035;-76
2021/08/31 05:32:29;;;;;;;8.77;2.22;;;15.60;95.70;;;;;;5071351;28;20115;-77
2021/08/31 05:34:55;;;;;;;8.77;2.50;;;15.60;95.80;;;;;;5089578;28;20139;-77
2021/08/31 05:37:21;;;;;;;6.28;1.92;;;15.70;95.80;;;;;;5088206;28;20036;-77
2021/08/31 05:39:46;;;;;;;7.00;2.22;;;15.60;95.60;;;;;;5090037;28;20028;-76
2021/08/31 05:42:12;;;;;;;5.45;2.08;;;15.70;95.70;;;;;;5071199;28;20059;-76
2021/08/31 05:44:39;;;;;;;5.25;2.05;;;15.70;95.80;;;;;;5088147;28;20461;-77
2021/08/31 05:47:06;;;;;;;4.65;2.03;;;15.70;95.70;;;;;;5089660;28;20082;-77
2021/08/31 05:49:34;;;;;;;5.45;2.20;;;15.70;95.80;;;;;;5089418;28;20028;-77
2021/08/31 05:52:00;;;;;;;6.82;2.35;;;15.80;95.80;;;;;;5070677;28;20024;-76
2021/08/31 05:54:26;;;;;;;7.20;2.35;;;15.80;95.70;;;;;;5087752;28;20432;-78
2021/08/31 05:56:57;;;;;;;7.53;2.30;;;15.80;95.70;;;;;;5088987;28;20032;-77
2021/08/31 05:59:23;;;;;;;8.68;2.28;;;15.90;95.60;;;;;;5087673;28;20040;-77
2021/08/31 06:01:49;;;;;;;7.97;2.35;;;15.80;95.60;;;;;;5071141;28;20395;-77
2021/08/31 06:04:15;;;;;;;6.97;3.00;;;15.80;95.60;;;;;;5087500;28;20040;-78
2021/08/31 06:06:41;;;;;;;8.05;2.22;;;15.70;95.70;;;;;;5087622;28;20458;-76
2021/08/31 06:09:07;;;;;;;5.28;1.90;;;15.70;95.80;;;;;;5070789;28;20115;-76
2021/08/31 06:11:40;;;;;;;5.80;2.13;;;15.60;95.80;;;;;;5088979;28;20177;-76
2021/08/31 06:14:07;;;;;;;8.85;2.17;;;15.60;95.90;;;;;;5087727;28;20024;-76
2021/08/31 06:16:34;;;;;;;8.55;2.60;;;15.60;96.00;;;;;;5070421;28;20032;-77
2021/08/31 06:19:01;;;;;;;7.88;2.60;;;15.50;96.10;;;;;;5087755;28;20173;-77
2021/08/31 06:21:27;;;;;;;8.18;2.80;;;15.60;96.20;;;;;;5088522;28;20454;-77
2021/08/31 06:23:52;;;;;;;;;;;15.60;96.20;;;;;;5087677;28;20024;-77
2021/08/31 06:26:19;;;;;;;7.60;2.63;;;15.60;96.20;;;;;;5070033;28;20312;-76
2021/08/31 06:28:44;;;;;;;7.22;2.35;;;15.60;96.10;;;;;;5088254;28;20047;-76
2021/08/31 06:31:10;;;;;;;6.95;2.08;;;15.70;96.20;;;;;;5070237;28;20035;-77
2021/08/31 06:33:36;;;;;;;7.97;2.08;;;15.70;96.10;;;;;;5070191;28;20032;-77
2021/08/31 06:36:02;;;;;;;10.45;2.42;;;15.70;96.20;;;;;;5088516;28;20046;-78
2021/08/31 06:38:27;;;;;;;5.65;1.85;;;15.70;96.20;;;;;;5069974;28;20448;-79
2021/08/31 06:40:53;;;;;;;6.47;2.53;;;15.80;96.20;;;;;;5088383;28;20040;-77
2021/08/31 06:43:19;;;;;;;7.13;1.73;;;15.80;96.20;;;;;;5086967;28;20049;-77
2021/08/31 06:45:45;;;;;;;4.55;1.67;;;15.90;96.10;;;;;;5086800;28;20032;-77
2021/08/31 06:48:11;;;;;;;6.85;1.92;;;15.90;96.10;;;;;;5086779;28;20059;-77
2021/08/31 06:50:37;;;;;;;5.93;2.25;;;15.90;96.10;;;;;;5070134;28;20508;-78
2021/08/31 06:53:03;;;;;;;4.40;1.35;;;16.00;96.10;;;;;;5086694;28;20032;-78
2021/08/31 06:55:29;;;;;;;4.88;1.75;;;16.00;96.00;;;;;;5087773;28;20070;-78
2021/08/31 06:57:55;;;;;;;7.47;1.67;;;16.10;96.00;;;;;;5087906;28;20081;-78
2021/08/31 07:00:21;;;;;;;4.47;1.67;;;16.10;96.00;;;;;;5087927;28;20410;-77
2021/08/31 07:02:47;;;;;;;4.70;1.33;;;16.10;95.80;;;;;;5086529;28;20115;-77
2021/08/31 07:05:12;;;;;;;5.00;1.50;;;16.10;95.90;;;;;;5087401;28;20099;-78
2021/08/31 07:07:38;;;;;;;3.85;1.35;;;16.10;95.90;;;;;;5086317;28;20510;-77
2021/08/31 07:10:05;;;;;;;3.85;1.20;;;16.00;95.90;;;;;;5087610;28;20032;-78
2021/08/31 07:12:31;;;;;;;6.43;1.50;;;16.10;96.00;;;;;;5086143;28;20037;-78
2021/08/31 07:14:58;;;;;;;3.38;1.23;;;16.20;96.00;;;;;;5086223;28;20028;-75
2021/08/31 07:17:25;;;;;;;5.57;1.70;;;16.30;96.00;;;;;;5087689;28;20535;-78
2021/08/31 07:19:50;;;;;;;5.68;1.63;;;16.40;95.80;;;;;;5087521;28;20093;-77
2021/08/31 07:22:17;;;;;;;7.13;2.00;;;16.50;95.80;;;;;;5069418;28;20417;-78
2021/08/31 07:24:43;;;;;;;4.65;1.45;;;16.60;95.60;;;;;;5086263;28;20040;-77
2021/08/31 07:27:09;;;;;;;;;;;16.60;95.50;;;;;;5087913;28;20028;-78
2021/08/31 07:29:34;;;;;;;7.28;1.88;;;16.60;95.40;;;;;;5085672;28;20308;-78
2021/08/31 07:32:00;;;;;;;5.22;1.70;;;16.40;95.30;;;;;;5086106;28;20020;-77
2021/08/31 07:34:28;;;;;;;6.32;1.90;;;16.30;95.40;;;;;;5087607;28;20024;-76
2021/08/31 07:36:54;;;;;;;8.80;2.08;;;16.30;95.50;;;;;;5085960;28;20036;-76
2021/08/31 07:39:20;;;;;;;;;;;16.30;95.40;;;;;;5069558;28;20567;-77
2021/08/31 07:41:46;;;;;;;7.18;2.38;;;16.30;95.30;;;;;;5086001;28;19946;-77
2021/08/31 07:44:11;;;;;;;6.85;2.20;;;16.30;95.30;;;;;;5085907;28;20044;-79
2021/08/31 07:46:38;;;;;;;9.60;2.63;;;16.30;95.40;;;;;;5086937;28;20045;-79
2021/08/31 07:49:04;;;;;;;9.10;3.20;;;16.30;95.40;;;;;;5087234;28;20013;-78
2021/08/31 07:51:30;;;;;;;6.28;2.22;;;16.20;95.30;;;;;;5085449;28;20406;-77
2021/08/31 07:53:56;;;;;;;12.52;3.65;;;16.20;95.30;;;;;;5068394;28;20169;-77
2021/08/31 07:56:21;;;;;;;8.18;2.40;;;16.30;95.40;;;;;;5086867;28;20390;-77
2021/08/31 07:58:47;;;;;;;8.25;2.40;;;16.30;95.40;;;;;;5086926;28;20107;-77
2021/08/31 08:01:13;;;;;;;9.52;2.60;;;16.40;95.40;;;;;;5085529;28;20031;-78
2021/08/31 08:03:38;;;;;;;8.40;2.22;;;16.50;95.30;;;;;;5086456;28;20115;-78
2021/08/31 08:06:04;;;;;;;8.00;2.80;;;16.50;95.20;;;;;;5084900;28;20105;-77
2021/08/31 08:08:30;;;;;;;6.00;2.17;;;16.60;95.20;;;;;;5085247;28;20064;-77
2021/08/31 08:10:55;;;;;;;19.90;3.58;;;16.60;95.00;;;;;;5086375;28;20029;-76
2021/08/31 08:13:21;;;;;;;8.77;2.53;;;16.70;94.90;;;;;;5086372;28;20028;-78
2021/08/31 08:15:47;;;;;;;7.85;2.55;;;16.60;94.80;;;;;;5087038;28;20035;-77
2021/08/31 08:18:13;;;;;;;6.60;2.40;;;16.60;94.80;;;;;;5090645;28;20532;-79
2021/08/31 08:20:42;;;;;;;8.18;2.75;;;16.70;94.80;;;;;;5090665;28;20538;-78
2021/08/31 08:23:08;;;;;;;5.95;2.40;;;16.80;94.70;;;;;;5090493;28;20502;-78
2021/08/31 08:25:33;;;;;;;7.30;2.72;;;17.00;94.60;;;;;;5090590;28;20066;-77
2021/08/31 08:27:59;;;;;;;8.02;2.97;;;17.10;94.40;;;;;;5072192;28;20082;-77
2021/08/31 08:30:25;;;;;;;11.07;2.60;;;17.30;94.20;;;;;;5090424;28;20432;-78
2021/08/31 08:32:51;;;;;;;7.63;2.72;;;17.30;93.90;;;;;;5072066;28;20039;-78
2021/08/31 08:35:16;;;;;;;5.93;2.45;;;17.50;93.60;;;;;;5089044;28;20024;-78
2021/08/31 08:37:43;;;;;;;6.05;2.30;;;17.50;93.40;;;;;;5072198;28;20551;-77
2021/08/31 08:40:10;;;;;;;7.32;2.55;;;17.50;93.30;;;;;;5090287;28;20024;-78
2021/08/31 08:42:37;;;;;;;6.43;2.65;;;17.50;93.20;;;;;;5097041;28;20075;-78
2021/08/31 08:45:06;;;;;;;8.90;2.50;;;17.50;93.10;;;;;;5075163;28;20055;-78
2021/08/31 08:47:32;;;;;;;8.45;2.88;;;17.50;92.80;;;;;;5110254;28;20046;-77
2021/08/31 08:49:59;;;;;;;7.00;2.47;;;17.50;92.70;;;;;;5092101;28;20024;-77
2021/08/31 08:52:25;;;;;;;6.38;3.13;;;17.60;92.80;;;;;;5075412;28;20028;-78
2021/08/31 08:54:50;;;;;;;8.13;2.67;;;17.60;92.60;;;;;;5092140;28;20133;-79
2021/08/31 08:57:20;;;;;;;8.80;2.60;;;17.70;92.40;;;;;;5074843;28;20038;-78
2021/08/31 08:59:49;;;;;;;6.22;2.50;;;17.80;92.10;;;;;;5109958;28;20032;-78
2021/08/31 09:02:38;;;;;;;8.05;2.40;;;17.80;91.70;;;;;;5110243;28;20339;-77
2021/08/31 09:05:06;;;;;;;8.77;2.53;;;17.90;91.20;;;;;;5109798;28;20047;-78
2021/08/31 09:07:36;;;;;;;6.25;2.60;;;17.90;91.00;;;;;;5091701;28;20023;-78
2021/08/31 09:10:20;;;;;;;6.55;2.22;;;17.90;90.60;;;;;;5091846;28;20024;-78
2021/08/31 09:12:48;;;;;;;6.57;2.40;;;17.90;90.40;;;;;;5093870;28;20024;-76
2021/08/31 09:15:39;;;;;;;7.97;2.58;;;17.90;90.20;;;;;;5093357;28;20038;-77
2021/08/31 09:18:08;;;;;;;5.68;2.30;;;17.80;90.00;;;;;;5093843;28;20030;-78
2021/08/31 09:20:38;;;;;;;5.57;2.58;;;17.80;90.10;;;;;;5112233;28;20020;-78
2021/08/31 09:23:07;;;;;;;5.95;2.72;;;17.80;89.30;;;;;;5112130;28;20040;-78
2021/08/31 09:25:35;;;;;;;9.55;2.28;;;17.90;89.30;;;;;;5095669;28;20089;-79
2021/08/31 09:28:01;;;;;;;6.00;2.30;;;17.90;89.10;;;;;;5100493;28;20020;-77
2021/08/31 09:30:30;;;;;;;;;;;18.00;88.70;;;;;;5093208;28;20024;-76
2021/08/31 09:33:01;;;;;;;6.90;2.40;;;18.00;88.70;;;;;;5111163;28;20010;-77
2021/08/31 09:35:33;;;;;;;6.28;2.28;;;18.10;87.90;;;;;;5092936;28;20323;-77
2021/08/31 09:38:00;;;;;;;8.05;2.20;;;18.10;87.10;;;;;;5093962;28;20073;-78
2021/08/31 09:40:30;;;;;;;7.60;2.45;;;18.10;86.40;;;;;;5111733;28;20027;-77
2021/08/31 09:43:06;;;;;;;6.35;2.58;;;18.00;86.00;;;;;;5111005;28;20063;-77
2021/08/31 09:45:40;;;;;;;4.38;2.13;;;18.10;86.30;;;;;;5110952;28;20443;-76
2021/08/31 09:48:12;;;;;;;6.68;2.50;;;18.20;86.20;;;;;;5092460;28;20060;-77
2021/08/31 09:50:50;;;;;;;4.75;2.10;;;18.20;85.50;;;;;;5092839;28;20024;-76
2021/08/31 09:53:18;;;;;;;6.00;2.10;;;18.20;84.40;;;;;;5106584;28;20044;-77
2021/08/31 09:56:02;;;;;;;9.40;2.88;;;18.20;84.40;;;;;;5110772;28;20117;-78
2021/08/31 09:58:29;;;;;;;7.15;2.25;;;18.40;84.10;;;;;;5092693;28;20027;-77
2021/08/31 10:00:55;;;;;;;8.30;2.42;;;18.50;83.60;;;;;;5092671;28;20020;-76
2021/08/31 10:03:22;;;;;;;;;;;18.60;83.20;;;;;;5111410;28;20027;-79
2021/08/31 10:05:50;;;;;;;;;;;18.50;83.10;;;;;;5110728;28;19907;-75
2021/08/31 10:08:16;;;;;;;;;;;18.50;83.30;;;;;;5110963;28;19923;-77
2021/08/31 10:10:43;;;;;;;5.95;2.35;;;18.50;83.40;;;;;;5110742;28;19941;-78
2021/08/31 10:13:13;;;;;;;8.20;2.13;;;18.50;83.10;;;;;;5092917;28;20083;-77
2021/08/31 10:15:44;;;;;;;6.28;2.35;;;18.60;82.70;;;;;;5110206;28;20037;-76
2021/08/31 10:18:10;;;;;;;6.15;1.95;;;18.80;82.30;;;;;;5075152;28;20027;-76
2021/08/31 10:20:43;;;;;;;6.97;2.10;;;19.00;82.20;;;;;;5109875;28;20031;-74
2021/08/31 10:23:10;;;;;;;6.60;2.65;;;19.10;81.30;;;;;;5110506;28;20023;-76
2021/08/31 10:25:35;;;;;;;6.85;2.20;;;19.20;80.70;;;;;;5110278;28;20106;-75
2021/08/31 10:28:18;;;;;;;6.65;2.55;;;19.20;80.70;;;;;;5110904;28;20019;-86
2021/08/31 10:30:47;;;;;;;5.57;1.77;;;19.30;80.00;;;;;;5110394;28;20063;-75
2021/08/31 10:33:31;;;;;;;4.75;2.03;;;19.50;79.50;;;;;;5110721;28;20027;-78
2021/08/31 10:35:58;;;;;;;8.13;2.50;;;19.60;79.00;;;;;;5110382;28;20023;-79
2021/08/31 10:38:45;;;;;;;5.60;2.03;;;19.90;79.20;;;;;;5091948;28;20023;-78
2021/08/31 10:41:34;;;;;;;6.20;2.50;;;20.10;77.80;;;;;;5091846;28;20019;-78
2021/08/31 10:44:00;;;;;;;8.25;2.40;;;20.40;77.30;;;;;;5108291;28;20047;-78
2021/08/31 10:46:46;;;;;;;7.07;2.40;;;20.50;76.60;;;;;;5109881;28;20016;-71
2021/08/31 10:49:11;;;;;;;7.65;2.90;;;20.60;76.30;;;;;;5109984;28;20053;-78
2021/08/31 10:51:57;;;;;;;;;;;20.70;75.40;;;;;;5110550;28;20020;-79
2021/08/31 10:54:52;;;;;;;5.85;2.45;;;20.70;75.60;;;;;;5109398;28;19955;-78
2021/08/31 10:57:36;;;;;;;5.10;2.15;;;20.70;74.70;;;;;;5095557;28;20045;-77
2021/08/31 11:00:24;;;;;;;8.43;3.35;;;20.60;74.10;;;;;;5091441;28;20019;-79
2021/08/31 11:02:57;;;;;;;6.18;2.35;;;20.60;73.50;;;;;;5091433;28;20085;-77
2021/08/31 11:05:24;;;;;;;5.93;2.50;;;20.60;72.90;;;;;;5091392;28;20455;-75
2021/08/31 11:07:52;;;;;;;20.15;2.83;;;20.50;72.90;;;;;;5090460;28;20024;-76
2021/08/31 11:10:28;;;;;;;8.07;2.42;;;20.40;72.60;;;;;;5074429;28;20019;-76
2021/08/31 11:12:54;;;;;;;6.43;2.40;;;20.30;71.80;;;;;;5101770;28;20027;-76
2021/08/31 11:15:25;;;;;;;7.43;2.78;;;20.20;71.90;;;;;;5108941;28;20045;-77
2021/08/31 11:17:51;;;;;;;5.32;2.25;;;20.10;71.70;;;;;;5110067;28;20030;-77
2021/08/31 11:20:29;;;;;;;6.00;2.50;;;20.00;71.40;;;;;;5091135;28;20020;-74
2021/08/31 11:23:14;;;;;;;9.20;3.00;;;19.90;70.80;;;;;;5109283;28;20497;-76
2021/08/31 11:25:43;;;;;;;7.68;2.60;;;19.80;71.40;;;;;;5091043;28;20024;-77
2021/08/31 11:28:11;;;;;;;4.88;2.22;;;19.90;71.30;;;;;;5109348;28;20052;-77
2021/08/31 11:30:59;;;;;;;7.75;2.17;;;19.90;70.90;;;;;;5108857;28;20020;-77
2021/08/31 11:33:26;;;;;;;7.57;2.65;;;19.80;70.70;;;;;;5109118;28;20020;-77
2021/08/31 11:35:58;;;;;;;6.35;2.35;;;19.80;70.30;;;;;;5091142;28;20084;-76
2021/08/31 11:38:41;;;;;;;6.45;1.88;;;19.60;70.10;;;;;;5109585;28;20785;-77
2021/08/31 11:41:17;;;;;;;9.68;2.30;;;19.50;69.50;;;;;;5109501;28;20026;-73
2021/08/31 11:43:52;;;;;;;6.47;2.33;;;19.30;69.60;;;;;;5108660;28;20115;-76
2021/08/31 11:46:29;;;;;;;8.27;3.05;;;19.30;69.50;;;;;;5091031;28;20028;-75
2021/08/31 11:49:09;;;;;;;5.38;2.35;;;19.20;69.80;;;;;;5108998;28;20461;-79
2021/08/31 11:51:36;;;;;;;8.48;2.30;;;19.20;70.10;;;;;;5092889;28;20024;-79
2021/08/31 11:54:11;;;;;;;7.32;2.45;;;19.30;70.00;;;;;;5113315;28;20035;-76
2021/08/31 11:56:38;;;;;;;6.32;2.30;;;19.50;69.60;;;;;;5095116;28;20445;-75
2021/08/31 11:59:04;;;;;;;8.52;2.78;;;19.60;69.60;;;;;;5113349;28;20072;-77
2021/08/31 12:01:32;;;;;;;6.18;2.65;;;19.80;69.20;;;;;;5113684;28;20028;-81
2021/08/31 12:04:18;;;;;;;8.15;2.60;;;19.90;68.90;;;;;;5094968;28;20031;-77
2021/08/31 12:06:52;;;;;;;6.97;2.25;;;20.10;68.60;;;;;;5113187;28;20458;-80
2021/08/31 12:09:22;;;;;;;6.63;2.22;;;20.10;68.40;;;;;;5113242;28;20103;-77
2021/08/31 12:11:49;;;;;;;6.70;2.55;;;20.30;68.00;;;;;;5094740;28;20023;-77
2021/08/31 12:14:18;;;;;;;5.75;2.20;;;20.30;67.90;;;;;;5094346;28;20023;-77
2021/08/31 12:16:46;;;;;;;6.30;2.42;;;20.40;67.20;;;;;;5113093;28;20385;-78
2021/08/31 12:19:16;;;;;;;7.28;3.42;;;20.40;67.10;;;;;;5112274;28;20028;-75
2021/08/31 12:21:42;;;;;;;5.32;2.20;;;20.30;67.10;;;;;;5112709;28;20084;-76
2021/08/31 12:24:13;;;;;;;;;;;20.40;67.10;;;;;;5094286;28;20028;-78
2021/08/31 12:26:39;;;;;;;5.30;2.10;;;20.30;67.50;;;;;;5112414;28;20367;-76
2021/08/31 12:29:05;;;;;;;;;;;20.20;67.40;;;;;;5112806;28;20055;-77
2021/08/31 12:31:31;;;;;;;7.22;2.17;;;20.20;67.80;;;;;;5112523;28;19910;-76
2021/08/31 12:33:57;;;;;;;6.60;2.53;;;20.00;67.50;;;;;;5093489;28;20475;-76
2021/08/31 12:36:30;;;;;;;;;;;19.90;67.40;;;;;;5094965;28;20385;-79
2021/08/31 12:38:58;;;;;;;8.82;2.70;;;19.80;68.00;;;;;;5094350;28;20301;-75
2021/08/31 12:41:27;;;;;;;7.68;2.35;;;19.90;68.00;;;;;;5111709;28;20036;-76
2021/08/31 12:44:02;;;;;;;10.10;2.30;;;19.90;67.50;;;;;;5093399;28;20047;-76
2021/08/31 12:46:33;;;;;;;5.88;2.33;;;19.80;67.30;;;;;;5093755;28;20051;-76
2021/08/31 12:49:02;;;;;;;9.50;2.55;;;19.70;67.40;;;;;;5111600;28;20049;-74
2021/08/31 12:51:45;;;;;;;6.00;2.38;;;19.70;67.30;;;;;;5110654;28;20038;-76
2021/08/31 12:54:22;;;;;;;7.78;2.20;;;19.70;67.30;;;;;;5093727;28;20473;-76
2021/08/31 12:56:58;;;;;;;;;;;19.60;67.10;;;;;;5111924;28;20027;-77